createdAt,value
2022-11-06T00:00:11.416Z,12.36
2022-11-06T00:01:10.697Z,12.39
2022-11-06T00:02:12.555Z,12.37
2022-11-06T00:03:10.273Z,12.36
2022-11-06T00:04:10.159Z,12.36
2022-11-06T00:05:10.487Z,12.34
2022-11-06T00:06:10.521Z,12.33
2022-11-06T00:07:10.637Z,12.38
2022-11-06T00:08:10.876Z,12.36
2022-11-06T00:09:10.634Z,12.34
2022-11-06T00:10:10.425Z,12.31
2022-11-06T00:11:10.327Z,12.32
2022-11-06T00:12:10.880Z,12.33
2022-11-06T00:13:10.936Z,12.33
2022-11-06T00:14:10.278Z,12.28
2022-11-06T00:15:10.643Z,12.24
2022-11-06T00:16:10.929Z,12.25
2022-11-06T00:17:10.829Z,12.27
2022-11-06T00:18:11.345Z,12.28
2022-11-06T00:19:10.815Z,12.27
2022-11-06T00:20:10.734Z,12.27
2022-11-06T00:21:10.744Z,12.27
2022-11-06T00:22:10.538Z,12.27
2022-11-06T00:23:10.665Z,12.27
2022-11-06T00:24:10.646Z,12.27
2022-11-06T00:25:10.752Z,12.27
2022-11-06T00:26:10.643Z,12.26
2022-11-06T00:27:10.452Z,12.27
2022-11-06T00:28:10.641Z,12.27
2022-11-06T00:29:10.595Z,12.28
2022-11-06T00:30:10.744Z,12.29
2022-11-06T00:31:10.613Z,12.27
2022-11-06T00:32:10.523Z,12.27
2022-11-06T00:33:10.301Z,12.26
2022-11-06T00:34:10.208Z,12.26
2022-11-06T00:35:10.743Z,12.23
2022-11-06T00:36:10.735Z,12.23
2022-11-06T00:37:10.467Z,12.22
2022-11-06T00:38:10.441Z,12.23
2022-11-06T00:39:10.615Z,12.23
2022-11-06T00:40:10.470Z,12.22
2022-11-06T00:41:09.965Z,12.21
2022-11-06T00:42:10.511Z,12.20
2022-11-06T00:43:10.068Z,12.17
2022-11-06T00:44:10.526Z,12.19
2022-11-06T00:45:10.221Z,12.20
2022-11-06T00:46:10.016Z,12.15
2022-11-06T00:47:10.529Z,12.17
2022-11-06T00:48:10.679Z,12.17
2022-11-06T00:49:10.254Z,12.17
2022-11-06T00:50:10.827Z,12.18
2022-11-06T00:51:10.726Z,12.16
2022-11-06T00:52:10.558Z,12.13
2022-11-06T00:53:10.164Z,12.18
2022-11-06T00:54:10.192Z,12.15
2022-11-06T00:55:10.689Z,12.14
2022-11-06T00:56:10.569Z,12.09
2022-11-06T00:57:10.317Z,12.11
2022-11-06T00:58:10.156Z,12.10
2022-11-06T00:59:09.894Z,12.11
2022-11-06T01:00:11.593Z,12.09
2022-11-06T01:01:11.272Z,12.13
2022-11-06T01:02:10.513Z,12.15
2022-11-06T01:03:11.388Z,12.12
2022-11-06T01:04:10.922Z,12.09
2022-11-06T01:05:11.027Z,12.07
2022-11-06T01:06:10.202Z,12.08
2022-11-06T01:07:10.244Z,12.06
2022-11-06T01:08:10.683Z,12.05
2022-11-06T01:09:10.585Z,12.04
2022-11-06T01:10:10.706Z,12.03
2022-11-06T01:11:10.214Z,12.02
2022-11-06T01:12:13.656Z,12.03
2022-11-06T01:13:10.837Z,12
2022-11-06T01:14:10.843Z,12.02
2022-11-06T01:15:10.930Z,12
2022-11-06T01:16:10.970Z,11.99
2022-11-06T01:17:10.742Z,12.00
2022-11-06T01:18:11.053Z,12.01
2022-11-06T01:19:10.167Z,12.01
2022-11-06T01:20:10.946Z,12.01
2022-11-06T01:21:10.672Z,12.02
2022-11-06T01:22:10.527Z,12.00
2022-11-06T01:23:09.882Z,12.02
2022-11-06T01:24:10.765Z,11.99
2022-11-06T01:25:11.136Z,11.98
2022-11-06T01:26:10.297Z,11.99
2022-11-06T01:27:26.933Z,11.98
2022-11-06T01:28:10.850Z,11.99
2022-11-06T01:29:10.609Z,11.97
2022-11-06T01:30:10.611Z,11.99
2022-11-06T01:31:10.206Z,12.01
2022-11-06T01:32:10.151Z,12.04
2022-11-06T01:33:10.096Z,12.01
2022-11-06T01:34:10.959Z,12.01
2022-11-06T01:35:10.546Z,11.97
2022-11-06T01:36:10.308Z,11.99
2022-11-06T01:37:13.248Z,12.00
2022-11-06T01:38:10.150Z,11.99
2022-11-06T01:39:10.976Z,12.00
2022-11-06T01:40:10.771Z,12
2022-11-06T01:41:10.489Z,12.01
2022-11-06T01:42:10.342Z,11.98
2022-11-06T01:43:10.033Z,11.97
2022-11-06T01:44:10.456Z,12.01
2022-11-06T01:45:10.350Z,12.06
2022-11-06T01:46:10.081Z,12.05
2022-11-06T01:47:10.119Z,12.03
2022-11-06T01:48:10.921Z,12.03
2022-11-06T01:49:10.590Z,12.03
2022-11-06T01:50:10.600Z,12.03
2022-11-06T01:51:10.186Z,12.02
2022-11-06T01:52:10.886Z,12.03
2022-11-06T01:53:10.616Z,12.06
2022-11-06T01:54:10.229Z,12.06
2022-11-06T01:55:10.886Z,12.06
2022-11-06T01:56:10.521Z,12.03
2022-11-06T01:57:09.952Z,12.04
2022-11-06T01:58:11.497Z,12.04
2022-11-06T01:59:10.196Z,12.03
2022-11-06T02:00:10.242Z,12.06
2022-11-06T02:01:10.295Z,12.09
2022-11-06T02:02:10.181Z,12.11
2022-11-06T02:03:10.700Z,12.08
2022-11-06T02:04:11.206Z,12.07
2022-11-06T02:05:10.390Z,12.09
2022-11-06T02:06:10.176Z,12.09
2022-11-06T02:07:10.509Z,12.09
2022-11-06T02:08:10.422Z,12.02
2022-11-06T02:09:10.740Z,12.00
2022-11-06T02:10:10.699Z,12.02
2022-11-06T02:11:10.395Z,12.01
2022-11-06T02:12:10.474Z,11.99
2022-11-06T02:13:10.688Z,12.04
2022-11-06T02:14:10.530Z,12.02
2022-11-06T02:15:10.586Z,11.97
2022-11-06T02:16:10.594Z,12.02
2022-11-06T02:17:10.299Z,12.03
2022-11-06T02:18:10.527Z,12.02
2022-11-06T02:19:10.600Z,12.01
2022-11-06T02:20:10.452Z,12.02
2022-11-06T02:21:10.310Z,12.02
2022-11-06T02:22:10.234Z,11.97
2022-11-06T02:23:10.689Z,11.97
2022-11-06T02:24:10.647Z,11.97
2022-11-06T02:25:10.811Z,11.94
2022-11-06T02:26:10.805Z,11.93
2022-11-06T02:27:10.545Z,11.93
2022-11-06T02:28:10.830Z,11.94
2022-11-06T02:29:09.980Z,11.93
2022-11-06T02:30:10.917Z,11.90
2022-11-06T02:31:10.262Z,11.93
2022-11-06T02:32:09.778Z,11.94
2022-11-06T02:33:10.557Z,11.93
2022-11-06T02:34:10.278Z,11.93
2022-11-06T02:35:11.222Z,11.93
2022-11-06T02:36:10.496Z,11.92
2022-11-06T02:37:10.025Z,11.97
2022-11-06T02:38:11.162Z,11.96
2022-11-06T02:39:10.204Z,11.93
2022-11-06T02:40:11.195Z,11.94
2022-11-06T02:41:10.347Z,11.96
2022-11-06T02:42:10.249Z,11.96
2022-11-06T02:43:10.565Z,11.90
2022-11-06T02:44:10.381Z,11.90
2022-11-06T02:45:10.852Z,11.89
2022-11-06T02:46:10.384Z,11.89
2022-11-06T02:47:10.839Z,11.92
2022-11-06T02:48:11.263Z,11.93
2022-11-06T02:49:10.029Z,11.91
2022-11-06T02:50:11.008Z,11.93
2022-11-06T02:51:10.743Z,11.93
2022-11-06T02:52:10.825Z,11.94
2022-11-06T02:53:10.664Z,11.97
2022-11-06T02:54:10.435Z,11.93
2022-11-06T02:55:10.409Z,11.93
2022-11-06T02:56:10.123Z,11.94
2022-11-06T02:57:09.977Z,11.96
2022-11-06T02:58:11.063Z,11.95
2022-11-06T02:59:10.622Z,11.97
2022-11-06T03:00:11.145Z,12
2022-11-06T03:01:10.330Z,11.99
2022-11-06T03:02:10.024Z,11.98
2022-11-06T03:03:10.109Z,11.98
2022-11-06T03:04:10.676Z,11.99
2022-11-06T03:05:10.660Z,11.97
2022-11-06T03:06:10.391Z,11.98
2022-11-06T03:07:09.598Z,11.97
2022-11-06T03:08:10.854Z,11.96
2022-11-06T03:09:10.330Z,11.98
2022-11-06T03:10:10.099Z,11.97
2022-11-06T03:11:10.296Z,12.00
2022-11-06T03:12:09.994Z,11.99
2022-11-06T03:13:10.132Z,11.96
2022-11-06T03:14:10.688Z,11.97
2022-11-06T03:15:10.357Z,12.01
2022-11-06T03:16:10.048Z,11.98
2022-11-06T03:17:10.249Z,11.97
2022-11-06T03:18:10.605Z,11.98
2022-11-06T03:19:10.671Z,12.02
2022-11-06T03:20:10.421Z,12.03
2022-11-06T03:21:10.505Z,12.03
2022-11-06T03:22:10.109Z,12.02
2022-11-06T03:23:10.589Z,12.00
2022-11-06T03:24:10.389Z,12.02
2022-11-06T03:25:10.081Z,12.05
2022-11-06T03:26:10.663Z,12.06
2022-11-06T03:27:10.299Z,12.06
2022-11-06T03:28:09.883Z,12.06
2022-11-06T03:29:10.202Z,12.07
2022-11-06T03:30:15.327Z,12.10
2022-11-06T03:31:09.760Z,12.12
2022-11-06T03:32:10.220Z,12.12
2022-11-06T03:33:10.734Z,12.13
2022-11-06T03:34:10.423Z,12.13
2022-11-06T03:35:10.158Z,12.16
2022-11-06T03:36:11.007Z,12.18
2022-11-06T03:37:10.688Z,12.17
2022-11-06T03:38:11.133Z,12.16
2022-11-06T03:39:10.269Z,12.17
2022-11-06T03:40:09.986Z,12.18
2022-11-06T03:41:10.612Z,12.21
2022-11-06T03:42:10.231Z,12.19
2022-11-06T03:43:10.300Z,12.17
2022-11-06T03:44:10.084Z,12.19
2022-11-06T03:45:10.191Z,12.19
2022-11-06T03:46:09.883Z,12.18
2022-11-06T03:47:10.148Z,12.20
2022-11-06T03:48:11.188Z,12.18
2022-11-06T03:49:09.920Z,12.20
2022-11-06T03:50:10.523Z,12.22
2022-11-06T03:51:10.118Z,12.23
2022-11-06T03:52:10.670Z,12.25
2022-11-06T03:53:10.012Z,12.23
2022-11-06T03:54:10.472Z,12.24
2022-11-06T03:55:11.013Z,12.25
2022-11-06T03:56:11.007Z,12.25
2022-11-06T03:57:10.572Z,12.28
2022-11-06T03:58:10.607Z,12.26
2022-11-06T03:59:10.777Z,12.26
2022-11-06T04:00:11.088Z,12.25
2022-11-06T04:01:10.191Z,12.27
2022-11-06T04:02:10.331Z,12.28
2022-11-06T04:03:10.481Z,12.28
2022-11-06T04:04:10.030Z,12.32
2022-11-06T04:05:10.500Z,12.32
2022-11-06T04:06:10.569Z,12.33
2022-11-06T04:07:10.212Z,12.33
2022-11-06T04:08:11.036Z,12.35
2022-11-06T04:09:10.106Z,12.35
2022-11-06T04:10:10.464Z,12.33
2022-11-06T04:11:10.251Z,12.32
2022-11-06T04:12:10.290Z,12.35
2022-11-06T04:13:10.709Z,12.36
2022-11-06T04:14:10.803Z,12.37
2022-11-06T04:15:10.545Z,12.38
2022-11-06T04:16:10.533Z,12.37
2022-11-06T04:17:10.356Z,12.37
2022-11-06T04:18:10.659Z,12.38
2022-11-06T04:19:10.352Z,12.39
2022-11-06T04:20:10.317Z,12.37
2022-11-06T04:21:10.817Z,12.39
2022-11-06T04:22:10.708Z,12.39
2022-11-06T04:23:10.293Z,12.38
2022-11-06T04:24:10.656Z,12.39
2022-11-06T04:25:10.163Z,12.39
2022-11-06T04:26:10.189Z,12.39
2022-11-06T04:27:10.518Z,12.42
2022-11-06T04:28:10.602Z,12.43
2022-11-06T04:29:10.432Z,12.42
2022-11-06T04:30:10.321Z,12.42
2022-11-06T04:31:10.506Z,12.43
2022-11-06T04:32:10.358Z,12.43
2022-11-06T04:33:10.821Z,12.42
2022-11-06T04:34:10.561Z,12.44
2022-11-06T04:35:10.347Z,12.48
2022-11-06T04:36:10.453Z,12.5
2022-11-06T04:37:10.785Z,12.43
2022-11-06T04:38:10.985Z,12.40
2022-11-06T04:39:10.250Z,12.39
2022-11-06T04:40:11.179Z,12.39
2022-11-06T04:41:10.590Z,12.39
2022-11-06T04:42:10.348Z,12.41
2022-11-06T04:43:10.747Z,12.39
2022-11-06T04:44:10.638Z,12.43
2022-11-06T04:45:10.377Z,12.39
2022-11-06T04:46:10.181Z,12.38
2022-11-06T04:47:10.917Z,12.37
2022-11-06T04:48:11.021Z,12.37
2022-11-06T04:49:10.782Z,12.36
2022-11-06T04:50:10.665Z,12.38
2022-11-06T04:51:10.439Z,12.42
2022-11-06T04:52:10.162Z,12.41
2022-11-06T04:53:10.731Z,12.38
2022-11-06T04:54:10.594Z,12.40
2022-11-06T04:55:10.349Z,12.40
2022-11-06T04:56:10.259Z,12.40
2022-11-06T04:57:10.313Z,12.38
2022-11-06T04:58:10.502Z,12.37
2022-11-06T04:59:10.804Z,12.33
2022-11-06T05:00:11.475Z,12.31
2022-11-06T05:01:10.779Z,12.32
2022-11-06T05:02:11.040Z,12.34
2022-11-06T05:03:10.269Z,12.33
2022-11-06T05:04:10.340Z,12.32
2022-11-06T05:05:10.213Z,12.30
2022-11-06T05:06:10.524Z,12.31
2022-11-06T05:07:10.330Z,12.31
2022-11-06T05:08:11.008Z,12.34
2022-11-06T05:09:10.294Z,12.33
2022-11-06T05:10:10.816Z,12.36
2022-11-06T05:11:10.536Z,12.37
2022-11-06T05:12:10.295Z,12.37
2022-11-06T05:13:10.724Z,12.35
2022-11-06T05:14:10.858Z,12.35
2022-11-06T05:15:10.541Z,12.33
2022-11-06T05:16:10.523Z,12.37
2022-11-06T05:17:10.365Z,12.35
2022-11-06T05:18:10.775Z,12.30
2022-11-06T05:19:10.208Z,12.32
2022-11-06T05:20:10.813Z,12.32
2022-11-06T05:21:10.693Z,12.32
2022-11-06T05:22:10.364Z,12.33
2022-11-06T05:23:10.332Z,12.35
2022-11-06T05:24:10.337Z,12.32
2022-11-06T05:25:11.045Z,12.35
2022-11-06T05:26:10.284Z,12.35
2022-11-06T05:27:10.302Z,12.33
2022-11-06T05:28:10.458Z,12.34
2022-11-06T05:29:10.509Z,12.32
2022-11-06T05:30:10.714Z,12.35
2022-11-06T05:31:10.675Z,12.36
2022-11-06T05:32:10.684Z,12.33
2022-11-06T05:33:10.384Z,12.34
2022-11-06T05:34:10.021Z,12.36
2022-11-06T05:35:10.168Z,12.37
2022-11-06T05:36:10.905Z,12.32
2022-11-06T05:37:10.776Z,12.31
2022-11-06T05:38:10.886Z,12.31
2022-11-06T05:39:10.671Z,12.27
2022-11-06T05:40:10.466Z,12.30
2022-11-06T05:41:10.233Z,12.30
2022-11-06T05:42:10.483Z,12.26
2022-11-06T05:43:10.731Z,12.28
2022-11-06T05:44:10.665Z,12.25
2022-11-06T05:45:10.745Z,12.23
2022-11-06T05:46:29.590Z,12.22
2022-11-06T05:47:10.151Z,12.19
2022-11-06T05:48:10.493Z,12.21
2022-11-06T05:49:10.576Z,12.19
2022-11-06T05:50:10.781Z,12.18
2022-11-06T05:51:10.363Z,12.20
2022-11-06T05:52:10.287Z,12.19
2022-11-06T05:53:10.718Z,12.20
2022-11-06T05:54:10.720Z,12.18
2022-11-06T05:55:14.742Z,12.18
2022-11-06T05:56:10.656Z,12.21
2022-11-06T05:57:10.357Z,12.19
2022-11-06T05:58:10.863Z,12.18
2022-11-06T05:59:10.676Z,12.20
2022-11-06T06:00:10.805Z,12.21
2022-11-06T06:01:10.489Z,12.22
2022-11-06T06:02:10.253Z,12.20
2022-11-06T06:03:10.883Z,12.21
2022-11-06T06:04:10.736Z,12.20
2022-11-06T06:05:10.399Z,12.19
2022-11-06T06:06:10.325Z,12.18
2022-11-06T06:07:10.715Z,12.17
2022-11-06T06:08:11.245Z,12.17
2022-11-06T06:09:10.501Z,12.15
2022-11-06T06:10:10.392Z,12.13
2022-11-06T06:11:10.994Z,12.12
2022-11-06T06:12:10.366Z,12.14
2022-11-06T06:13:10.667Z,12.16
2022-11-06T06:14:10.454Z,12.14
2022-11-06T06:15:10.082Z,12.13
2022-11-06T06:16:10.834Z,12.08
2022-11-06T06:17:10.351Z,12.07
2022-11-06T06:18:10.197Z,12.08
2022-11-06T06:19:10.215Z,12.07
2022-11-06T06:20:10.233Z,12.09
2022-11-06T06:21:09.977Z,12.10
2022-11-06T06:22:10.597Z,12.08
2022-11-06T06:23:10.132Z,12.10
2022-11-06T06:24:10.925Z,12.11
2022-11-06T06:25:21.435Z,12.10
2022-11-06T06:26:10.365Z,12.10
2022-11-06T06:27:10.833Z,12.09
2022-11-06T06:28:11.126Z,12.12
2022-11-06T06:29:09.721Z,12.13
2022-11-06T06:30:10.778Z,12.15
2022-11-06T06:31:10.558Z,12.14
2022-11-06T06:32:10.325Z,12.14
2022-11-06T06:33:10.664Z,12.12
2022-11-06T06:34:10.422Z,12.13
2022-11-06T06:35:10.862Z,12.15
2022-11-06T06:36:10.702Z,12.16
2022-11-06T06:37:10.418Z,12.18
2022-11-06T06:38:09.784Z,12.17
2022-11-06T06:39:10.531Z,12.19
2022-11-06T06:40:10.523Z,12.19
2022-11-06T06:41:10.885Z,12.17
2022-11-06T06:42:10.894Z,12.17
2022-11-06T06:43:10.449Z,12.18
2022-11-06T06:44:10.273Z,12.18
2022-11-06T06:45:11.120Z,12.21
2022-11-06T06:46:10.014Z,12.20
2022-11-06T06:47:10.988Z,12.23
2022-11-06T06:48:10.555Z,12.23
2022-11-06T06:49:09.970Z,12.25
2022-11-06T06:50:11.083Z,12.27
2022-11-06T06:51:10.922Z,12.28
2022-11-06T06:52:10.892Z,12.32
2022-11-06T06:53:10.752Z,12.32
2022-11-06T06:54:10.865Z,12.36
2022-11-06T06:55:10.744Z,12.37
2022-11-06T06:56:10.843Z,12.39
2022-11-06T06:57:10.559Z,12.40
2022-11-06T06:58:16.620Z,12.46
2022-11-06T06:59:11.225Z,12.44
2022-11-06T07:00:10.863Z,12.46
2022-11-06T07:01:10.045Z,12.47
2022-11-06T07:02:10.741Z,12.50
2022-11-06T07:03:10.507Z,12.51
2022-11-06T07:04:10.084Z,12.52
2022-11-06T07:05:10.311Z,12.54
2022-11-06T07:06:10.099Z,12.59
2022-11-06T07:08:11.132Z,12.63
2022-11-06T07:09:10.093Z,12.67
2022-11-06T07:10:10.643Z,12.69
2022-11-06T07:11:09.939Z,12.72
2022-11-06T07:12:10.486Z,12.72
2022-11-06T07:13:10.379Z,12.75
2022-11-06T07:14:10.683Z,12.74
2022-11-06T07:15:09.989Z,12.77
2022-11-06T07:16:10.753Z,12.80
2022-11-06T07:17:10.372Z,12.81
2022-11-06T07:18:10.279Z,12.81
2022-11-06T07:19:10.695Z,12.79
2022-11-06T07:20:10.583Z,12.81
2022-11-06T07:21:10.369Z,12.85
2022-11-06T07:22:10.450Z,12.85
2022-11-06T07:23:10.360Z,12.89
2022-11-06T07:24:10.194Z,12.89
2022-11-06T07:25:10.181Z,12.90
2022-11-06T07:26:10.223Z,12.93
2022-11-06T07:27:10.685Z,12.97
2022-11-06T07:28:10.376Z,13
2022-11-06T07:29:10.056Z,12.97
2022-11-06T07:30:10.685Z,12.97
2022-11-06T07:31:10.218Z,13.00
2022-11-06T07:32:10.586Z,13.05
2022-11-06T07:33:09.987Z,13.09
2022-11-06T07:34:10.671Z,13.11
2022-11-06T07:35:10.198Z,13.17
2022-11-06T07:36:10.837Z,13.20
2022-11-06T07:37:10.033Z,13.24
2022-11-06T07:38:10.948Z,13.25
2022-11-06T07:39:10.246Z,13.26
2022-11-06T07:40:10.142Z,13.30
2022-11-06T07:41:10.601Z,13.32
2022-11-06T07:42:10.243Z,13.35
2022-11-06T07:43:10.051Z,13.37
2022-11-06T07:44:10.888Z,13.41
2022-11-06T07:45:10.088Z,13.43
2022-11-06T07:46:09.923Z,13.49
2022-11-06T07:47:10.327Z,13.52
2022-11-06T07:48:10.063Z,13.60
2022-11-06T07:49:10.372Z,13.65
2022-11-06T07:50:10.323Z,13.73
2022-11-06T07:51:10.633Z,13.78
2022-11-06T07:52:10.496Z,13.86
2022-11-06T07:53:10.101Z,13.90
2022-11-06T07:54:10.463Z,13.94
2022-11-06T07:55:10.798Z,13.99
2022-11-06T07:56:10.652Z,13.94
2022-11-06T07:57:10.268Z,13.93
2022-11-06T07:58:10.024Z,13.89
2022-11-06T07:59:10.171Z,13.89
2022-11-06T08:00:11.609Z,13.89
2022-11-06T08:01:15.395Z,13.90
2022-11-06T08:02:10.662Z,13.91
2022-11-06T08:03:10.617Z,13.92
2022-11-06T08:04:10.158Z,13.93
2022-11-06T08:05:10.520Z,13.96
2022-11-06T08:06:10.142Z,13.96
2022-11-06T08:07:10.776Z,13.93
2022-11-06T08:08:10.402Z,13.90
2022-11-06T08:09:10.338Z,13.95
2022-11-06T08:10:09.959Z,13.96
2022-11-06T08:11:10.142Z,13.96
2022-11-06T08:12:10.753Z,13.97
2022-11-06T08:13:10.431Z,14.01
2022-11-06T08:14:10.141Z,13.98
2022-11-06T08:15:10.568Z,14.02
2022-11-06T08:16:10.431Z,14.07
2022-11-06T08:17:11.027Z,14.12
2022-11-06T08:18:10.992Z,14.14
2022-11-06T08:19:10.509Z,14.14
2022-11-06T08:20:10.402Z,14.17
2022-11-06T08:21:10.233Z,14.25
2022-11-06T08:22:10.353Z,14.29
2022-11-06T08:23:10.123Z,14.35
2022-11-06T08:24:10.806Z,14.40
2022-11-06T08:25:10.150Z,14.41
2022-11-06T08:26:09.964Z,14.43
2022-11-06T08:27:10.693Z,14.46
2022-11-06T08:28:10.522Z,14.51
2022-11-06T08:29:10.685Z,14.56
2022-11-06T08:30:10.306Z,14.62
2022-11-06T08:31:10.435Z,14.66
2022-11-06T08:32:10.328Z,14.69
2022-11-06T08:33:10.805Z,14.74
2022-11-06T08:34:10.288Z,14.76
2022-11-06T08:35:10.760Z,14.80
2022-11-06T08:36:10.279Z,14.75
2022-11-06T08:37:10.735Z,14.75
2022-11-06T08:38:10.522Z,14.78
2022-11-06T08:39:10.824Z,14.81
2022-11-06T08:40:10.481Z,14.83
2022-11-06T08:41:10.369Z,14.87
2022-11-06T08:42:09.964Z,14.87
2022-11-06T08:43:10.634Z,14.89
2022-11-06T08:44:10.261Z,14.93
2022-11-06T08:45:10.279Z,14.92
2022-11-06T08:46:10.324Z,14.94
2022-11-06T08:47:10.451Z,14.98
2022-11-06T08:48:18.009Z,15.00
2022-11-06T08:49:10.764Z,15.01
2022-11-06T08:50:10.647Z,14.99
2022-11-06T08:51:10.301Z,14.98
2022-11-06T08:52:10.109Z,15.01
2022-11-06T08:53:11.096Z,15
2022-11-06T08:54:10.688Z,15.02
2022-11-06T08:55:10.440Z,15.03
2022-11-06T08:56:10.227Z,15.08
2022-11-06T08:57:10.885Z,15.08
2022-11-06T08:58:10.761Z,15.10
2022-11-06T08:59:10.314Z,15.12
2022-11-06T09:00:10.434Z,15.13
2022-11-06T09:01:10.774Z,15.17
2022-11-06T09:02:10.767Z,15.20
2022-11-06T09:03:10.716Z,15.26
2022-11-06T09:04:10.281Z,15.28
2022-11-06T09:05:10.794Z,15.31
2022-11-06T09:06:10.515Z,15.35
2022-11-06T09:07:10.150Z,15.38
2022-11-06T09:08:24.899Z,15.40
2022-11-06T09:09:10.275Z,15.46
2022-11-06T09:10:10.322Z,15.46
2022-11-06T09:11:10.867Z,15.48
2022-11-06T09:12:10.532Z,15.50
2022-11-06T09:13:10.478Z,15.50
2022-11-06T09:14:10.889Z,15.47
2022-11-06T09:15:10.120Z,15.48
2022-11-06T09:16:15.391Z,15.48
2022-11-06T09:17:10.577Z,15.47
2022-11-06T09:18:10.218Z,15.50
2022-11-06T09:19:10.784Z,15.5
2022-11-06T09:20:10.501Z,15.52
2022-11-06T09:21:10.210Z,15.56
2022-11-06T09:22:10.698Z,15.57
2022-11-06T09:23:10.894Z,15.62
2022-11-06T09:24:10.571Z,15.65
2022-11-06T09:25:10.177Z,15.69
2022-11-06T09:26:10.614Z,15.72
2022-11-06T09:27:10.447Z,15.76
2022-11-06T09:28:10.082Z,15.78
2022-11-06T09:29:10.521Z,15.86
2022-11-06T09:30:10.341Z,15.89
2022-11-06T09:31:09.856Z,15.92
2022-11-06T09:32:09.983Z,15.93
2022-11-06T09:33:13.489Z,15.95
2022-11-06T09:34:10.653Z,16
2022-11-06T09:35:10.079Z,16.02
2022-11-06T09:36:10.830Z,16.05
2022-11-06T09:37:10.585Z,16.10
2022-11-06T09:38:10.285Z,16.11
2022-11-06T09:39:10.802Z,16.12
2022-11-06T09:40:10.667Z,16.12
2022-11-06T09:41:10.023Z,16.11
2022-11-06T09:42:10.424Z,16.11
2022-11-06T09:43:11.164Z,16.10
2022-11-06T09:44:09.886Z,16.11
2022-11-06T09:45:10.350Z,16.12
2022-11-06T09:46:10.357Z,16.14
2022-11-06T09:47:10.440Z,16.12
2022-11-06T09:48:09.955Z,16.11
2022-11-06T09:49:10.120Z,16.14
2022-11-06T09:50:10.672Z,16.15
2022-11-06T09:51:10.133Z,16.17
2022-11-06T09:52:10.255Z,16.18
2022-11-06T09:53:10.795Z,16.21
2022-11-06T09:54:10.278Z,16.23
2022-11-06T09:55:10.477Z,16.24
2022-11-06T09:56:10.454Z,16.26
2022-11-06T09:57:09.965Z,16.29
2022-11-06T09:59:08.885Z,16.35
2022-11-06T10:01:11.595Z,16.37
2022-11-06T10:02:10.237Z,16.40
2022-11-06T10:03:10.446Z,16.43
2022-11-06T10:04:10.707Z,16.45
2022-11-06T10:05:10.392Z,16.48
2022-11-06T10:06:10.197Z,16.52
2022-11-06T10:07:10.605Z,16.56
2022-11-06T10:08:10.693Z,16.63
2022-11-06T10:09:10.868Z,16.67
2022-11-06T10:10:10.856Z,16.71
2022-11-06T10:11:10.548Z,16.78
2022-11-06T10:12:10.360Z,16.83
2022-11-06T10:13:14.819Z,16.88
2022-11-06T10:14:10.700Z,16.91
2022-11-06T10:15:10.770Z,16.94
2022-11-06T10:16:10.482Z,16.97
2022-11-06T10:17:09.950Z,17.01
2022-11-06T10:18:11.238Z,17.03
2022-11-06T10:19:10.464Z,17.04
2022-11-06T10:20:10.301Z,17.09
2022-11-06T10:21:09.984Z,17.07
2022-11-06T10:22:10.450Z,17.07
2022-11-06T10:23:10.115Z,17.10
2022-11-06T10:24:10.838Z,17.11
2022-11-06T10:25:10.409Z,17.13
2022-11-06T10:26:10.457Z,17.17
2022-11-06T10:27:10.300Z,17.19
2022-11-06T10:28:09.885Z,17.17
2022-11-06T10:29:09.998Z,17.17
2022-11-06T10:30:10.990Z,17.19
2022-11-06T10:31:10.502Z,17.19
2022-11-06T10:32:10.245Z,17.21
2022-11-06T10:33:10.746Z,17.26
2022-11-06T10:34:10.778Z,17.27
2022-11-06T10:35:10.740Z,17.32
2022-11-06T10:36:10.693Z,17.37
2022-11-06T10:37:10.507Z,17.40
2022-11-06T10:38:10.633Z,17.44
2022-11-06T10:39:10.220Z,17.47
2022-11-06T10:40:10.163Z,17.50
2022-11-06T10:41:10.720Z,17.51
2022-11-06T10:42:10.598Z,17.52
2022-11-06T10:43:10.658Z,17.53
2022-11-06T10:44:10.565Z,17.60
2022-11-06T10:45:10.935Z,17.56
2022-11-06T10:46:10.741Z,17.56
2022-11-06T10:47:10.642Z,17.57
2022-11-06T10:48:11.795Z,17.57
2022-11-06T10:49:10.622Z,17.60
2022-11-06T10:50:10.497Z,17.57
2022-11-06T10:51:10.347Z,17.52
2022-11-06T10:52:10.605Z,17.49
2022-11-06T10:53:10.101Z,17.44
2022-11-06T10:54:10.788Z,17.45
2022-11-06T10:55:10.362Z,17.45
2022-11-06T10:56:11.380Z,17.46
2022-11-06T10:57:10.328Z,17.46
2022-11-06T10:58:10.342Z,17.48
2022-11-06T10:59:10.319Z,17.49
2022-11-06T11:00:10.758Z,17.49
2022-11-06T11:01:10.082Z,17.48
2022-11-06T11:02:10.133Z,17.5
2022-11-06T11:03:10.623Z,17.48
2022-11-06T11:04:10.724Z,17.49
2022-11-06T11:05:10.803Z,17.47
2022-11-06T11:06:10.813Z,17.42
2022-11-06T11:07:10.347Z,17.39
2022-11-06T11:08:10.996Z,17.31
2022-11-06T11:09:10.074Z,17.25
2022-11-06T11:10:10.181Z,17.15
2022-11-06T11:11:10.531Z,17.12
2022-11-06T11:12:10.655Z,17.13
2022-11-06T11:13:10.443Z,17.12
2022-11-06T11:14:10.465Z,17.09
2022-11-06T11:15:10.439Z,17.09
2022-11-06T11:16:10.762Z,17.05
2022-11-06T11:17:11.016Z,17.05
2022-11-06T11:18:11.111Z,17.05
2022-11-06T11:19:10.046Z,17.07
2022-11-06T11:20:10.648Z,17.09
2022-11-06T11:21:10.252Z,17.14
2022-11-06T11:22:10.070Z,17.19
2022-11-06T11:23:10.824Z,17.19
2022-11-06T11:24:09.996Z,17.22
2022-11-06T11:25:10.841Z,17.25
2022-11-06T11:26:10.947Z,17.25
2022-11-06T11:27:10.446Z,17.25
2022-11-06T11:28:10.232Z,17.23
2022-11-06T11:29:10.448Z,17.25
2022-11-06T11:30:10.585Z,17.26
2022-11-06T11:31:10.666Z,17.26
2022-11-06T11:32:10.606Z,17.29
2022-11-06T11:33:10.282Z,17.29
2022-11-06T11:34:10.275Z,17.30
2022-11-06T11:35:10.341Z,17.37
2022-11-06T11:36:10.111Z,17.44
2022-11-06T11:37:10.647Z,17.51
2022-11-06T11:38:11.030Z,17.60
2022-11-06T11:39:10.744Z,17.70
2022-11-06T11:40:13.427Z,17.77
2022-11-06T11:41:10.704Z,17.87
2022-11-06T11:42:10.799Z,17.95
2022-11-06T11:43:10.604Z,18.01
2022-11-06T11:44:10.517Z,18.04
2022-11-06T11:45:10.609Z,18.09
2022-11-06T11:46:10.625Z,18.12
2022-11-06T11:47:10.682Z,18.20
2022-11-06T11:48:11.220Z,18.23
2022-11-06T11:49:10.598Z,18.24
2022-11-06T11:50:10.575Z,18.23
2022-11-06T11:51:10.337Z,18.26
2022-11-06T11:52:10.234Z,18.26
2022-11-06T11:53:10.798Z,18.26
2022-11-06T11:54:10.659Z,18.25
2022-11-06T11:55:10.350Z,18.28
2022-11-06T11:56:10.584Z,18.29
2022-11-06T11:57:10.363Z,18.29
2022-11-06T11:58:10.603Z,18.27
2022-11-06T11:59:10.750Z,18.27
2022-11-06T12:00:10.982Z,18.27
2022-11-06T12:01:10.891Z,18.29
2022-11-06T12:02:11.038Z,18.30
2022-11-06T12:03:10.200Z,18.32
2022-11-06T12:04:10.032Z,18.33
2022-11-06T12:05:10.057Z,18.37
2022-11-06T12:06:10.777Z,18.39
2022-11-06T12:07:10.486Z,18.40
2022-11-06T12:08:11.096Z,18.41
2022-11-06T12:09:10.815Z,18.39
2022-11-06T12:10:10.761Z,18.43
2022-11-06T12:11:10.452Z,18.44
2022-11-06T12:12:10.121Z,18.44
2022-11-06T12:13:10.739Z,18.43
2022-11-06T12:14:10.808Z,18.46
2022-11-06T12:15:11.038Z,18.48
2022-11-06T12:16:10.067Z,18.52
2022-11-06T12:17:10.440Z,18.54
2022-11-06T12:18:10.516Z,18.60
2022-11-06T12:19:10.930Z,18.64
2022-11-06T12:20:10.964Z,18.67
2022-11-06T12:21:09.757Z,18.69
2022-11-06T12:22:10.792Z,18.68
2022-11-06T12:23:10.802Z,18.69
2022-11-06T12:24:10.856Z,18.70
2022-11-06T12:25:10.687Z,18.70
2022-11-06T12:26:10.556Z,18.71
2022-11-06T12:27:10.212Z,18.72
2022-11-06T12:28:10.844Z,18.73
2022-11-06T12:29:10.001Z,18.70
2022-11-06T12:30:10.941Z,18.69
2022-11-06T12:31:09.828Z,18.70
2022-11-06T12:32:11.008Z,18.66
2022-11-06T12:33:10.704Z,18.63
2022-11-06T12:34:16.031Z,18.62
2022-11-06T12:35:09.985Z,18.63
2022-11-06T12:36:10.956Z,18.64
2022-11-06T12:37:10.811Z,18.60
2022-11-06T12:38:11.130Z,18.59
2022-11-06T12:39:10.801Z,18.59
2022-11-06T12:40:10.635Z,18.58
2022-11-06T12:41:10.126Z,18.60
2022-11-06T12:42:11.048Z,18.59
2022-11-06T12:43:10.914Z,18.56
2022-11-06T12:44:10.930Z,18.57
2022-11-06T12:45:10.662Z,18.54
2022-11-06T12:46:10.610Z,18.52
2022-11-06T12:47:10.345Z,18.5
2022-11-06T12:48:09.926Z,18.45
2022-11-06T12:49:10.062Z,18.45
2022-11-06T12:50:10.906Z,18.43
2022-11-06T12:51:10.481Z,18.44
2022-11-06T12:52:10.054Z,18.44
2022-11-06T12:53:10.593Z,18.44
2022-11-06T12:54:10.439Z,18.47
2022-11-06T12:55:11.266Z,18.51
2022-11-06T12:56:10.345Z,18.52